Time;durP1;ratioP1;P1;durP2;ratioP2;P2;SDS_P1;SDS_P2;PMS_P1;PMS_P2;Temp;Humidity;BMP_temperature;BMP_pressure;BME280_temperature;BME280_humidity;BME280_pressure;Samples;Min_cycle;Max_cycle;Signal;HPM_P1;HPM_P2
2022/05/07 00:09:52;;;;;;;3.37;3.07;;;;;;;24.47;42.96;100731.81;20435166;28;97873;-75
2022/05/07 00:19:53;;;;;;;4.95;3.22;;;;;;;24.46;42.70;100720.41;20440224;28;97344;-76
2022/05/07 00:29:53;;;;;;;3.90;3.42;;;;;;;24.45;42.70;100718.72;20444121;28;97729;-76
2022/05/07 00:39:53;;;;;;;3.92;3.28;;;;;;;24.44;42.85;100724.16;20448320;28;97077;-76
2022/05/07 00:51:33;;;;;;;3.50;3.03;;;;;;;24.41;42.91;100721.75;20460430;28;97663;-77
2022/05/07 01:00:19;;;;;;;4.13;3.72;;;;;;;24.39;42.74;100719.25;20448501;28;97237;-76
2022/05/07 01:10:21;;;;;;;2.95;2.75;;;;;;;24.38;42.99;100725.50;20448585;28;97873;-77
2022/05/07 01:20:22;;;;;;;4.07;3.10;;;;;;;24.39;42.80;100721.03;20450286;28;99606;-77
2022/05/07 01:30:23;;;;;;;4.03;2.97;;;;;;;24.36;42.94;100716.03;20441441;28;97266;-76
2022/05/07 01:40:24;;;;;;;3.17;2.88;;;;;;;24.35;43.01;100723.16;20444065;28;97229;-76
2022/05/07 01:50:26;;;;;;;2.70;2.50;;;;;;;24.33;43.11;100719.78;20446575;28;100060;-76
2022/05/07 02:00:27;;;;;;;3.00;2.63;;;;;;;24.32;43.06;100714.63;20429132;28;97660;-76
2022/05/07 02:10:27;;;;;;;3.00;2.60;;;;;;;24.30;43.07;100712.94;20440684;28;97354;-76
2022/05/07 02:20:29;;;;;;;3.42;2.92;;;;;;;24.29;43.06;100711.25;20439899;28;97493;-76
2022/05/07 02:30:29;;;;;;;3.23;2.93;;;;;;;24.27;43.14;100712.38;20442918;28;99943;-76
2022/05/07 02:40:30;;;;;;;2.95;2.60;;;;;;;24.26;42.94;100711.50;20444605;28;101626;-76
2022/05/07 02:50:30;;;;;;;4.82;2.58;;;;;;;24.25;43.37;100709.00;20443680;28;96977;-76
2022/05/07 03:00:31;;;;;;;3.13;2.88;;;;;;;24.25;43.04;100709.84;20439776;28;99528;-76
2022/05/07 03:10:31;;;;;;;2.53;2.33;;;;;;;24.23;43.03;100711.78;20444308;28;97160;-77
2022/05/07 03:20:32;;;;;;;2.75;2.50;;;;;;;24.22;43.10;100717.22;20441181;28;97298;-76
2022/05/07 03:30:32;;;;;;;4.20;2.55;;;;;;;24.21;43.28;100710.25;20438055;28;97403;-76
2022/05/07 03:40:33;;;;;;;2.72;2.30;;;;;;;24.19;43.21;100726.22;20432319;28;97418;-76
2022/05/07 03:50:33;;;;;;;2.92;2.47;;;;;;;24.18;43.23;100729.03;20428611;28;97925;-77
2022/05/07 04:00:34;;;;;;;2.38;2.22;;;;;;;24.14;43.22;100731.94;20434328;28;98498;-77
2022/05/07 04:10:34;;;;;;;2.63;2.42;;;;;;;24.14;43.14;100729.28;20456913;28;97077;-74
2022/05/07 04:20:36;;;;;;;3.10;2.50;;;;;;;24.15;43.06;100740.69;20470386;28;101951;-74
2022/05/07 04:30:36;;;;;;;2.70;2.50;;;;;;;24.13;43.20;100747.91;20459316;28;97830;-74
2022/05/07 04:40:36;;;;;;;2.97;2.47;;;;;;;24.14;43.12;100749.59;20449645;28;98108;-74
2022/05/07 04:50:37;;;;;;;2.60;2.40;;;;;;;24.12;43.21;100749.75;20460253;28;97832;-73
2022/05/07 05:00:37;;;;;;;3.05;2.35;;;;;;;24.12;43.04;100748.88;20436852;28;97185;-74
2022/05/07 05:10:38;;;;;;;38.05;22.42;;;;;;;24.16;43.79;100750.31;20434407;28;99884;-76
2022/05/07 05:20:38;;;;;;;41.97;23.40;;;;;;;24.22;44.14;100751.63;20438972;28;97275;-75
2022/05/07 05:30:39;;;;;;;34.90;21.33;;;;;;;24.26;43.97;100764.44;20444111;28;100082;-75
2022/05/07 05:40:41;;;;;;;33.03;18.50;;;;;;;24.29;44.40;100763.34;20442546;28;98680;-76
2022/05/07 05:50:41;;;;;;;14.15;8.88;;;;;;;23.86;41.80;100775.69;20426315;28;97970;-74
2022/05/07 06:00:42;;;;;;;14.23;7.55;;;;;;;23.94;41.37;100780.38;20418078;28;96926;-74
2022/05/07 06:10:42;;;;;;;12.85;6.30;;;;;;;23.95;41.87;100785.53;20445949;28;97260;-74
2022/05/07 06:20:43;;;;;;;6.63;5.53;;;;;;;24.06;41.39;100789.09;20439873;28;98609;-74
2022/05/07 06:30:43;;;;;;;6.65;5.05;;;;;;;24.09;41.21;100788.84;20454503;28;97818;-73
2022/05/07 06:40:43;;;;;;;8.57;4.82;;;;;;;24.09;40.98;100779.09;20449674;28;97654;-73
2022/05/07 06:50:44;;;;;;;6.70;4.40;;;;;;;24.08;41.08;100789.81;20408106;28;100166;-76
2022/05/07 07:00:44;;;;;;;8.32;4.45;;;;;;;24.10;41.00;100782.59;20344644;28;97688;-75
2022/05/07 07:10:45;;;;;;;24.67;15.98;;;;;;;24.09;41.61;100781.72;20358865;28;97714;-76
2022/05/07 07:20:49;;;;;;;17.90;11.27;;;;;;;24.12;42.15;100780.63;20439379;28;98254;-75
2022/05/07 07:30:49;;;;;;;7.85;5.32;;;;;;;23.80;40.19;100797.34;20421911;28;97543;-74
2022/05/07 07:40:50;;;;;;;6.43;4.95;;;;;;;23.48;40.71;100798.19;20440302;28;101255;-75
2022/05/07 07:50:51;;;;;;;7.28;4.82;;;;;;;23.27;40.70;100792.81;20465544;28;99696;-76
2022/05/07 08:00:51;;;;;;;6.40;4.75;;;;;;;23.21;41.43;100790.69;20469185;28;100011;-75
2022/05/07 08:21:12;;;;;;;6.78;4.68;;;;;;;23.05;41.20;100791.84;20457513;28;97807;-75
2022/05/07 08:31:13;;;;;;;5.77;4.83;;;;;;;23.03;41.07;100796.41;20456370;28;98826;-75
2022/05/07 08:41:14;;;;;;;5.68;4.40;;;;;;;22.99;41.17;100802.91;20461046;28;96966;-75
2022/05/07 08:51:16;;;;;;;5.80;4.75;;;;;;;23.01;41.28;100809.75;20448174;28;98632;-73
2022/05/07 09:01:17;;;;;;;5.87;4.53;;;;;;;23.09;41.26;100803.03;20456688;28;97190;-74
2022/05/07 09:11:19;;;;;;;6.82;4.68;;;;;;;23.22;40.52;100805.53;20465511;28;97566;-74
2022/05/07 09:21:24;;;;;;;7.78;4.72;;;;;;;22.96;40.55;100806.63;20460664;28;97020;-76
2022/05/07 09:31:26;;;;;;;8.10;4.10;;;;;;;23.28;39.78;100794.50;20469849;28;100131;-76
2022/05/07 09:41:27;;;;;;;6.07;4.20;;;;;;;23.27;39.02;100790.19;20452136;28;99945;-77
2022/05/07 09:51:29;;;;;;;8.57;4.30;;;;;;;23.23;38.21;100780.81;20424972;28;97075;-76
2022/05/07 10:01:48;;;;;;;8.15;3.72;;;;;;;23.25;38.44;100766.50;20445288;28;99036;-77
2022/05/07 10:11:55;;;;;;;7.88;4.43;;;;;;;23.54;38.12;100765.97;20450826;28;97723;-77
2022/05/07 10:21:55;;;;;;;6.00;4.00;;;;;;;23.60;37.81;100756.69;20468591;28;97293;-77
2022/05/07 10:32:03;;;;;;;6.05;4.00;;;;;;;23.85;38.00;100758.13;20465615;28;101296;-77
2022/05/07 10:42:19;;;;;;;8.43;4.22;;;;;;;24.00;39.86;100744.63;20434689;28;98348;-75
2022/05/07 10:52:33;;;;;;;7.80;4.70;;;;;;;24.14;38.91;100739.88;20444694;28;101226;-75
2022/05/07 11:02:34;;;;;;;6.68;3.90;;;;;;;24.39;37.32;100736.91;20454433;28;96998;-75
2022/05/07 11:12:39;;;;;;;5.23;2.90;;;;;;;24.42;35.12;100724.25;20456330;28;98692;-75
2022/05/07 11:22:40;;;;;;;6.75;3.20;;;;;;;24.37;35.04;100709.78;20446847;28;100273;-76
2022/05/07 11:32:42;;;;;;;8.20;3.70;;;;;;;24.54;36.60;100701.19;20454069;28;97109;-76
2022/05/07 11:42:49;;;;;;;8.70;3.60;;;;;;;24.66;36.75;100699.31;20457530;28;97517;-75
2022/05/07 11:52:52;;;;;;;28.67;17.45;;;;;;;24.75;37.21;100687.91;20448819;28;99450;-76
2022/05/07 12:03:00;;;;;;;17.02;10.30;;;;;;;24.78;37.64;100685.00;20453103;28;101189;-76
2022/05/07 12:13:00;;;;;;;8.68;5.80;;;;;;;24.85;37.76;100668.56;20450156;28;96968;-77
2022/05/07 12:33:20;;;;;;;8.93;4.20;;;;;;;24.73;36.51;100655.44;20465629;28;96924;-76
2022/05/07 12:43:21;;;;;;;5.20;3.97;;;;;;;25.00;35.93;100645.16;20465948;28;97552;-74
2022/05/07 12:53:21;;;;;;;7.22;4.20;;;;;;;24.90;35.77;100632.75;20474032;28;96931;-75
2022/05/07 13:03:22;;;;;;;6.83;3.93;;;;;;;24.94;35.68;100622.72;20473939;28;96974;-74
2022/05/07 13:13:24;;;;;;;9.87;3.50;;;;;;;24.76;35.07;100620.72;20460775;28;98423;-76
2022/05/07 13:23:26;;;;;;;20.17;6.10;;;;;;;25.02;36.43;100608.78;20440228;28;97270;-75
2022/05/07 13:33:28;;;;;;;24.97;6.97;;;;;;;25.15;37.25;100596.09;20408051;28;98177;-75
2022/05/07 13:43:29;;;;;;;3.88;3.17;;;;;;;24.80;32.08;100581.56;20357322;28;100672;-75
2022/05/07 13:53:29;;;;;;;6.63;3.08;;;;;;;25.10;32.69;100575.31;20329915;28;98503;-74
2022/05/07 14:03:30;;;;;;;6.30;2.85;;;;;;;25.20;31.32;100583.25;20370699;28;97613;-74
2022/05/07 14:13:30;;;;;;;6.10;3.08;;;;;;;25.29;31.62;100567.47;20348638;28;97159;-74
2022/05/07 14:23:31;;;;;;;6.03;2.90;;;;;;;25.26;30.10;100564.13;20338067;28;99636;-75
2022/05/07 14:33:31;;;;;;;3.15;2.42;;;;;;;25.25;29.25;100562.47;20337336;28;98346;-74
2022/05/07 14:43:32;;;;;;;26.30;4.53;;;;;;;25.44;30.25;100555.50;20335652;28;100255;-75
2022/05/07 14:53:32;;;;;;;3.22;2.80;;;;;;;25.57;29.42;100548.06;20342973;28;98694;-74
2022/05/07 15:03:34;;;;;;;3.80;2.47;;;;;;;25.50;29.34;100554.06;20345536;28;98088;-75
2022/05/07 15:13:35;;;;;;;4.28;2.88;;;;;;;25.70;28.84;100549.56;20319939;28;100951;-75
2022/05/07 15:23:35;;;;;;;5.38;2.75;;;;;;;25.85;29.24;100545.47;20303280;28;99314;-74
2022/05/07 15:43:56;;;;;;;4.93;2.90;;;;;;;26.27;28.29;100540.66;20323477;28;97821;-73
2022/05/07 15:53:58;;;;;;;3.55;2.53;;;;;;;26.38;27.79;100535.16;20330131;28;97428;-75
2022/05/07 16:03:58;;;;;;;7.15;2.55;;;;;;;25.89;27.88;100527.44;20345305;28;98548;-74
2022/05/07 16:13:59;;;;;;;3.03;2.33;;;;;;;25.89;26.69;100536.22;20341967;28;99971;-75
2022/05/07 16:34:21;;;;;;;3.67;2.15;;;;;;;25.06;27.45;100538.63;20363475;28;97086;-72
2022/05/07 16:44:22;;;;;;;3.75;2.25;;;;;;;25.16;26.87;100547.41;20341153;28;98009;-74
2022/05/07 16:54:22;;;;;;;4.57;2.25;;;;;;;24.93;27.76;100560.94;20322076;28;99505;-74
2022/05/07 17:04:24;;;;;;;4.60;3.00;;;;;;;24.96;28.35;100566.94;20364916;28;96978;-75
2022/05/07 17:14:24;;;;;;;5.57;2.60;;;;;;;24.70;28.68;100562.22;20352490;28;99456;-74
2022/05/07 17:24:25;;;;;;;4.30;2.90;;;;;;;24.61;29.20;100575.25;20361132;28;99414;-73
2022/05/07 17:34:26;;;;;;;5.45;2.42;;;;;;;24.19;29.65;100577.25;20354874;28;101511;-73
2022/05/07 17:44:26;;;;;;;6.68;2.67;;;;;;;23.90;30.97;100584.06;20380057;28;97360;-73
2022/05/07 17:54:27;;;;;;;5.47;3.13;;;;;;;23.55;32.20;100592.38;20366602;28;97119;-74
2022/05/07 18:04:28;;;;;;;7.60;3.55;;;;;;;23.55;32.88;100609.03;20365974;28;98419;-73
2022/05/07 18:14:28;;;;;;;4.57;3.10;;;;;;;23.29;33.56;100608.56;20346848;28;97510;-74
2022/05/07 18:24:29;;;;;;;5.97;3.13;;;;;;;23.68;34.09;100614.16;20347785;28;101575;-75
2022/05/07 18:34:29;;;;;;;5.30;3.60;;;;;;;23.89;33.89;100627.34;20370457;28;97314;-75
2022/05/07 18:44:31;;;;;;;8.77;4.13;;;;;;;23.96;34.44;100647.03;20347861;28;99136;-76
2022/05/07 18:54:32;;;;;;;8.67;3.93;;;;;;;23.92;34.38;100653.53;20329472;28;100260;-75
2022/05/07 19:04:33;;;;;;;7.13;4.20;;;;;;;24.08;34.85;100657.53;20332415;28;102648;-75
2022/05/07 19:14:33;;;;;;;10.37;3.93;;;;;;;24.17;35.16;100671.78;20335131;28;100932;-73
2022/05/07 19:24:34;;;;;;;4.80;3.38;;;;;;;24.19;35.30;100686.53;20336050;28;97728;-74
2022/05/07 19:34:34;;;;;;;6.40;3.67;;;;;;;24.16;35.29;100704.50;20358957;28;98053;-73
2022/05/07 19:44:35;;;;;;;7.85;3.20;;;;;;;24.17;34.87;100716.75;20369196;28;97816;-73
2022/05/07 19:54:35;;;;;;;4.22;3.17;;;;;;;24.17;35.61;100719.41;20377499;28;100694;-73
2022/05/07 20:04:41;;;;;;;5.50;3.08;;;;;;;24.23;35.64;100726.81;20364810;28;98044;-74
2022/05/07 20:14:42;;;;;;;4.55;3.28;;;;;;;24.21;35.28;100726.94;20374252;28;98491;-73
2022/05/07 20:24:42;;;;;;;5.37;3.23;;;;;;;24.22;35.53;100735.75;20375260;28;96886;-74
2022/05/07 20:34:43;;;;;;;4.97;3.20;;;;;;;24.16;35.75;100752.13;20354583;28;97509;-74
2022/05/07 20:55:03;;;;;;;5.13;3.20;;;;;;;24.17;36.16;100764.38;20370911;28;98085;-74
2022/05/07 21:05:04;;;;;;;4.70;3.40;;;;;;;24.16;36.31;100774.13;20354233;28;100124;-74
2022/05/07 21:15:06;;;;;;;5.35;3.17;;;;;;;24.14;36.31;100779.56;20358844;28;97845;-74
2022/05/07 21:35:26;;;;;;;3.58;3.05;;;;;;;24.14;36.87;100784.00;20422952;28;98719;-73
2022/05/07 21:45:27;;;;;;;3.30;2.97;;;;;;;24.13;36.94;100793.75;20402433;28;97596;-73
2022/05/07 21:55:27;;;;;;;3.20;2.90;;;;;;;24.12;37.14;100799.16;20349696;28;99895;-73
2022/05/07 22:05:28;;;;;;;4.97;3.10;;;;;;;24.09;36.95;100802.91;20355347;28;98546;-73
2022/05/07 22:15:29;;;;;;;3.53;2.65;;;;;;;24.13;37.17;100788.47;20350134;28;100741;-74
2022/05/07 22:25:30;;;;;;;6.80;2.80;;;;;;;24.11;37.27;100790.38;20353003;28;97841;-73
2022/05/07 22:35:30;;;;;;;3.88;2.95;;;;;;;24.12;37.37;100797.38;20336696;28;102907;-74
2022/05/07 22:45:31;;;;;;;4.57;3.03;;;;;;;24.11;37.46;100800.97;20349956;28;99649;-73
2022/05/07 22:55:32;;;;;;;3.10;2.80;;;;;;;24.09;37.70;100805.53;20351544;28;98671;-74
2022/05/07 23:05:32;;;;;;;3.95;2.95;;;;;;;24.06;38.15;100795.22;20346502;28;97547;-74
2022/05/07 23:15:33;;;;;;;4.18;2.90;;;;;;;24.04;38.11;100796.34;20415924;28;101421;-73
2022/05/07 23:25:34;;;;;;;3.15;2.58;;;;;;;24.01;38.21;100783.34;20433487;28;97360;-73
2022/05/07 23:35:35;;;;;;;3.47;2.67;;;;;;;24.02;38.25;100792.97;20421406;28;97667;-73
2022/05/07 23:45:35;;;;;;;3.50;2.72;;;;;;;24.01;38.31;100792.13;20434116;28;100635;-74
2022/05/07 23:55:38;;;;;;;3.35;2.90;;;;;;;24.02;38.61;100782.38;20431145;28;96920;-74
